createdAt,value
2018-05-18T00:01:23.220Z,11.40
2018-05-18T00:03:51.518Z,11.03
2018-05-18T00:06:19.824Z,12.17
2018-05-18T00:08:48.921Z,12.67
2018-05-18T00:11:17.240Z,10.43
2018-05-18T00:13:45.548Z,9.07
2018-05-18T00:16:13.846Z,13.43
2018-05-18T00:18:42.152Z,8.37
2018-05-18T00:21:10.460Z,19.67
2018-05-18T00:23:38.788Z,7.93
2018-05-18T00:26:07.076Z,13.77
2018-05-18T00:28:35.397Z,9.23
2018-05-18T00:31:03.684Z,10.93
2018-05-18T00:33:32.004Z,12.60
2018-05-18T00:36:00.313Z,12.60
2018-05-18T00:38:28.628Z,18.33
2018-05-18T00:40:56.917Z,11.00
2018-05-18T00:43:25.250Z,12.43
2018-05-18T00:45:53.537Z,9.43
2018-05-18T00:48:21.860Z,11.20
2018-05-18T00:50:50.161Z,13.07
2018-05-18T00:53:19.241Z,7.93
2018-05-18T00:55:47.522Z,8.67
2018-05-18T00:58:15.864Z,10.60
2018-05-18T01:00:44.925Z,16.37
2018-05-18T01:03:13.264Z,12.77
2018-05-18T01:05:41.592Z,12.03
2018-05-18T01:08:09.940Z,10.60
2018-05-18T01:10:38.260Z,15.37
2018-05-18T01:13:06.570Z,13.30
2018-05-18T01:15:34.868Z,15.63
2018-05-18T01:18:03.191Z,11.77
2018-05-18T01:20:31.507Z,8.87
2018-05-18T01:23:00.617Z,13.00
2018-05-18T01:25:28.939Z,13.30
2018-05-18T01:27:57.253Z,12.07
2018-05-18T01:30:25.548Z,6.60
2018-05-18T01:32:53.865Z,8.53
2018-05-18T01:35:22.148Z,13.40
2018-05-18T01:37:50.502Z,10.70
2018-05-18T01:40:18.810Z,14.47
2018-05-18T01:42:47.153Z,9.97
2018-05-18T01:45:16.212Z,14.37
2018-05-18T01:47:44.533Z,9.73
2018-05-18T01:50:12.819Z,9.50
2018-05-18T01:52:41.127Z,12.67
2018-05-18T01:55:09.415Z,10.87
2018-05-18T01:57:37.741Z,7.40
2018-05-18T02:00:06.803Z,10.40
2018-05-18T02:02:35.105Z,12.97
2018-05-18T02:05:04.188Z,11.67
2018-05-18T02:07:32.491Z,16.47
2018-05-18T02:10:00.820Z,7.20
2018-05-18T02:12:29.916Z,11.03
2018-05-18T02:14:58.237Z,15.47
2018-05-18T02:17:26.576Z,9.73
2018-05-18T02:19:54.896Z,14.50
2018-05-18T02:22:23.183Z,11.53
2018-05-18T02:24:51.507Z,12.37
2018-05-18T02:27:19.797Z,11.50
2018-05-18T02:29:48.116Z,12.50
2018-05-18T02:32:16.408Z,16.67
2018-05-18T02:34:44.764Z,13.27
2018-05-18T02:37:13.059Z,12.10
2018-05-18T02:39:41.401Z,11.63
2018-05-18T02:42:10.465Z,12.07
2018-05-18T02:44:38.786Z,7.47
2018-05-18T02:47:07.837Z,11.27
2018-05-18T02:49:36.153Z,13.17
2018-05-18T02:52:05.221Z,10.03
2018-05-18T02:54:33.537Z,13.67
2018-05-18T02:57:01.872Z,18.40
2018-05-18T02:59:30.192Z,16.40
2018-05-18T03:01:58.477Z,9.30
2018-05-18T03:04:26.829Z,17.43
2018-05-18T03:06:55.901Z,11.40
2018-05-18T03:09:24.229Z,7.00
2018-05-18T03:11:52.535Z,16.23
2018-05-18T03:14:20.869Z,15.40
2018-05-18T03:16:49.200Z,11.47
2018-05-18T03:19:17.514Z,16.47
2018-05-18T03:21:46.589Z,16.63
2018-05-18T03:24:14.916Z,12.53
2018-05-18T03:26:43.204Z,15.33
2018-05-18T03:29:11.520Z,10.60
2018-05-18T03:31:39.813Z,8.17
2018-05-18T03:34:08.141Z,19.10
2018-05-18T03:36:36.479Z,12.47
2018-05-18T03:39:05.548Z,14.20
2018-05-18T03:41:34.684Z,12.43
2018-05-18T03:44:03.165Z,13.60
2018-05-18T03:46:31.523Z,13.33
2018-05-18T03:49:00.704Z,15.27
2018-05-18T03:51:29.045Z,11.20
2018-05-18T03:53:57.416Z,11.40
2018-05-18T03:56:25.815Z,16.07
2018-05-18T03:58:54.201Z,16.73
2018-05-18T04:04:36.231Z,13.67
2018-05-18T04:07:16.264Z,12.10
2018-05-18T04:09:44.608Z,14.73
2018-05-18T04:12:12.900Z,12.30
2018-05-18T04:14:41.236Z,11.83
2018-05-18T04:17:09.525Z,11.07
2018-05-18T04:19:38.625Z,11.97
2018-05-18T04:22:07.686Z,18.00
2018-05-18T04:24:36.003Z,12.93
2018-05-18T04:27:05.072Z,10.43
2018-05-18T04:29:34.171Z,12.47
2018-05-18T04:32:03.233Z,18.27
2018-05-18T04:34:31.543Z,14.83
2018-05-18T04:36:59.818Z,9.37
2018-05-18T04:39:28.108Z,19.60
2018-05-18T04:41:57.227Z,14.50
2018-05-18T04:44:25.524Z,16.20
2018-05-18T04:46:53.862Z,12.60
2018-05-18T04:49:22.184Z,9.97
2018-05-18T04:51:50.515Z,16.07
2018-05-18T04:54:19.565Z,9.90
2018-05-18T04:56:47.903Z,13.20
2018-05-18T04:59:16.200Z,12.33
2018-05-18T05:01:44.536Z,9.23
2018-05-18T05:04:12.816Z,14.77
2018-05-18T05:06:41.901Z,12.10
2018-05-18T05:09:10.179Z,10.83
2018-05-18T05:11:38.503Z,14.90
2018-05-18T05:14:06.858Z,11.43
2018-05-18T05:16:35.238Z,10.37
2018-05-18T05:19:03.556Z,10.93
2018-05-18T05:21:31.883Z,17.57
2018-05-18T05:24:00.944Z,15.93
2018-05-18T05:26:29.256Z,24.07
2018-05-18T05:28:58.324Z,19.93
2018-05-18T05:31:26.645Z,14.93
2018-05-18T05:33:54.939Z,16.67
2018-05-18T05:36:23.264Z,13.43
2018-05-18T05:38:51.570Z,15.83
2018-05-18T05:41:20.723Z,15.20
2018-05-18T05:43:49.016Z,18.80
2018-05-18T05:46:17.352Z,19.50
2018-05-18T05:48:45.655Z,20.87
2018-05-18T05:51:13.997Z,23.03
2018-05-18T05:53:42.309Z,23.20
2018-05-18T05:56:10.633Z,23.87
2018-05-18T05:58:38.928Z,20.67
2018-05-18T06:01:07.248Z,19.40
2018-05-18T06:03:35.558Z,21.57
2018-05-18T06:06:04.649Z,24.20
2018-05-18T06:08:33.721Z,21.30
2018-05-18T06:11:02.032Z,19.63
2018-05-18T06:13:30.340Z,22.07
2018-05-18T06:15:58.662Z,22.23
2018-05-18T06:18:26.987Z,19.87
2018-05-18T06:20:55.329Z,19.97
2018-05-18T06:23:23.686Z,15.77
2018-05-18T06:25:52.009Z,26.57
2018-05-18T06:28:20.329Z,18.77
2018-05-18T06:30:48.622Z,18.87
2018-05-18T06:33:17.005Z,21.53
2018-05-18T06:35:46.130Z,18.17
2018-05-18T06:38:14.537Z,24.67
2018-05-18T06:40:42.904Z,24.40
2018-05-18T06:43:11.324Z,24.90
2018-05-18T06:45:39.621Z,22.73
2018-05-18T06:48:07.941Z,28.70
2018-05-18T06:50:36.266Z,31.83
2018-05-18T06:53:05.424Z,25.43
2018-05-18T06:55:33.757Z,26.77
2018-05-18T06:58:02.941Z,29.97
2018-05-18T07:00:31.320Z,30.17
2018-05-18T07:02:59.720Z,32.53
2018-05-18T07:05:28.885Z,26.93
2018-05-18T07:07:58.202Z,31.53
2018-05-18T07:10:26.639Z,34.23
2018-05-18T07:12:55.748Z,35.47
2018-05-18T07:15:24.908Z,40.80
2018-05-18T07:17:53.292Z,53.43
2018-05-18T07:20:21.674Z,38.10
2018-05-18T07:22:50.026Z,30.87
2018-05-18T07:25:18.333Z,32.90
2018-05-18T07:27:46.680Z,40.03
2018-05-18T07:30:14.969Z,32.77
2018-05-18T07:32:44.080Z,32.07
2018-05-18T07:35:12.424Z,35.97
2018-05-18T07:37:41.525Z,39.60
2018-05-18T07:40:09.812Z,33.27
2018-05-18T07:42:38.907Z,36.80
2018-05-18T07:45:07.968Z,36.67
2018-05-18T07:47:36.284Z,40.70
2018-05-18T07:50:05.434Z,38.63
2018-05-18T07:52:34.463Z,33.07
2018-05-18T07:55:03.551Z,34.57
2018-05-18T07:57:31.891Z,33.73
2018-05-18T08:00:00.198Z,33.83
2018-05-18T08:02:28.541Z,34.93
2018-05-18T08:04:56.846Z,36.03
2018-05-18T08:07:25.176Z,33.53
2018-05-18T08:09:53.515Z,39.87
2018-05-18T08:12:21.848Z,33.57
2018-05-18T08:14:50.184Z,32.40
2018-05-18T08:17:18.537Z,39.27
2018-05-18T08:19:46.848Z,34.23
2018-05-18T08:22:15.909Z,36.67
2018-05-18T08:24:44.263Z,29.20
2018-05-18T08:27:23.590Z,31.13
2018-05-18T08:29:51.904Z,39.33
2018-05-18T08:32:20.252Z,35.27
2018-05-18T08:34:48.605Z,30.60
2018-05-18T08:37:17.665Z,34.03
2018-05-18T08:39:46.016Z,34.20
2018-05-18T08:42:14.313Z,29.97
2018-05-18T08:44:43.409Z,30.27
2018-05-18T08:47:11.709Z,36.23
2018-05-18T08:49:40.828Z,30.80
2018-05-18T08:52:09.148Z,31.60
2018-05-18T08:54:37.488Z,34.50
2018-05-18T08:57:05.830Z,42.13
2018-05-18T08:59:34.170Z,32.63
2018-05-18T09:02:02.472Z,31.87
2018-05-18T09:04:30.809Z,31.63
2018-05-18T09:06:59.117Z,30.80
2018-05-18T09:09:27.455Z,35.60
2018-05-18T09:11:55.764Z,27.57
2018-05-18T09:14:24.879Z,32.33
2018-05-18T09:16:53.198Z,34.67
2018-05-18T09:19:21.529Z,34.63
2018-05-18T09:21:49.872Z,30.47
2018-05-18T09:24:18.220Z,34.90
2018-05-18T09:26:47.279Z,34.40
2018-05-18T09:29:15.628Z,29.07
2018-05-18T09:31:43.972Z,32.57
2018-05-18T09:34:13.088Z,33.67
2018-05-18T09:36:41.396Z,27.67
2018-05-18T09:39:09.801Z,34.17
2018-05-18T09:41:38.126Z,30.00
2018-05-18T09:44:06.460Z,35.23
2018-05-18T09:46:34.781Z,33.33
2018-05-18T09:49:03.127Z,36.17
2018-05-18T09:51:31.461Z,26.63
2018-05-18T09:53:59.801Z,35.37
2018-05-18T09:56:28.103Z,28.40
2018-05-18T09:58:56.440Z,36.17
2018-05-18T10:01:24.744Z,35.33
2018-05-18T10:03:53.089Z,27.77
2018-05-18T10:06:21.382Z,29.93
2018-05-18T10:08:50.447Z,26.70
2018-05-18T10:11:18.783Z,27.53
2018-05-18T10:13:47.080Z,32.10
2018-05-18T10:16:15.471Z,26.67
2018-05-18T10:18:43.791Z,32.33
2018-05-18T10:21:12.881Z,26.40
2018-05-18T10:23:41.945Z,31.40
2018-05-18T10:26:10.264Z,33.43
2018-05-18T10:28:38.614Z,30.60
2018-05-18T10:31:06.948Z,30.30
2018-05-18T10:33:35.257Z,30.97
2018-05-18T10:36:03.597Z,24.97
2018-05-18T10:38:32.265Z,26.20
2018-05-18T10:41:00.599Z,24.77
2018-05-18T10:43:28.940Z,20.83
2018-05-18T10:45:57.289Z,25.63
2018-05-18T10:48:26.354Z,23.17
2018-05-18T10:50:54.708Z,24.97
2018-05-18T10:53:23.010Z,22.43
2018-05-18T10:55:51.356Z,26.87
2018-05-18T10:58:19.715Z,20.43
2018-05-18T11:00:47.977Z,25.30
2018-05-18T11:03:17.124Z,21.93
2018-05-18T11:05:45.404Z,22.23
2018-05-18T11:08:13.693Z,17.80
2018-05-18T11:10:42.047Z,19.13
2018-05-18T11:13:11.104Z,21.10
2018-05-18T11:15:40.220Z,25.57
2018-05-18T11:18:08.515Z,20.10
2018-05-18T11:20:36.857Z,18.47
2018-05-18T11:23:05.950Z,16.37
2018-05-18T11:25:35.071Z,20.80
2018-05-18T11:28:03.421Z,18.30
2018-05-18T11:30:31.813Z,19.23
2018-05-18T11:33:00.133Z,16.00
2018-05-18T11:35:28.533Z,19.17
2018-05-18T11:37:56.944Z,16.47
2018-05-18T11:40:25.331Z,14.97
2018-05-18T11:42:53.680Z,13.60
2018-05-18T11:45:22.042Z,12.53
2018-05-18T11:47:50.446Z,18.47
2018-05-18T11:50:19.653Z,14.63
2018-05-18T11:52:48.031Z,16.13
2018-05-18T11:55:16.433Z,11.83
2018-05-18T11:57:44.781Z,15.60
2018-05-18T12:00:13.888Z,12.63
2018-05-18T12:02:43.033Z,14.30
2018-05-18T12:05:11.461Z,12.57
2018-05-18T12:07:39.860Z,9.60
2018-05-18T12:10:08.205Z,11.53
2018-05-18T12:12:37.376Z,11.37
2018-05-18T12:15:06.474Z,13.00
2018-05-18T12:17:34.836Z,14.47
2018-05-18T12:20:03.143Z,9.83
2018-05-18T12:22:31.456Z,9.50
2018-05-18T12:25:00.518Z,10.50
2018-05-18T12:27:28.848Z,14.03
2018-05-18T12:29:57.136Z,11.47
2018-05-18T12:32:25.454Z,11.27
2018-05-18T12:34:53.809Z,11.77
2018-05-18T12:37:22.905Z,11.87
2018-05-18T12:39:51.199Z,11.97
2018-05-18T12:42:19.520Z,12.20
2018-05-18T12:44:47.841Z,12.87
2018-05-18T12:47:16.169Z,14.03
2018-05-18T12:49:44.471Z,11.20
2018-05-18T12:52:12.803Z,10.20
2018-05-18T12:54:41.113Z,11.40
2018-05-18T12:57:09.428Z,10.03
2018-05-18T12:59:37.724Z,14.20
2018-05-18T13:02:06.082Z,9.57
2018-05-18T13:04:34.372Z,9.10
2018-05-18T13:07:02.721Z,13.00
2018-05-18T13:09:31.048Z,8.50
2018-05-18T13:12:00.176Z,8.77
2018-05-18T13:14:28.598Z,12.13
2018-05-18T13:16:57.034Z,10.00
2018-05-18T13:19:25.406Z,9.10
2018-05-18T13:21:54.523Z,13.33
2018-05-18T13:24:22.899Z,11.30
2018-05-18T13:26:51.275Z,8.97
2018-05-18T13:29:19.671Z,9.13
2018-05-18T13:31:48.042Z,6.80
2018-05-18T13:34:16.479Z,8.60
2018-05-18T13:36:44.821Z,9.13
2018-05-18T13:39:13.200Z,12.60
2018-05-18T13:41:42.298Z,9.40
2018-05-18T13:44:10.726Z,10.60
2018-05-18T13:46:39.085Z,7.37
2018-05-18T13:49:07.432Z,7.93
2018-05-18T13:51:35.765Z,9.43
2018-05-18T13:54:04.185Z,10.03
2018-05-18T13:56:32.543Z,9.17
2018-05-18T13:59:01.021Z,10.87
2018-05-18T14:01:29.401Z,10.90
2018-05-18T14:03:57.809Z,12.00
2018-05-18T14:06:26.163Z,10.57
2018-05-18T14:08:54.552Z,9.57
2018-05-18T14:11:22.924Z,8.33
2018-05-18T14:13:51.295Z,7.97
2018-05-18T14:16:19.664Z,8.87
2018-05-18T14:18:48.041Z,12.13
2018-05-18T14:21:16.478Z,12.53
2018-05-18T14:23:44.912Z,11.10
2018-05-18T14:26:13.237Z,7.13
2018-05-18T14:28:41.610Z,7.30
2018-05-18T14:31:10.017Z,7.17
2018-05-18T14:33:38.403Z,7.13
2018-05-18T14:36:06.762Z,6.50
2018-05-18T14:38:35.160Z,7.17
2018-05-18T14:41:04.289Z,6.03
2018-05-18T14:43:32.643Z,7.27
2018-05-18T14:46:01.030Z,4.53
2018-05-18T14:48:29.428Z,5.43
2018-05-18T14:50:57.788Z,7.50
2018-05-18T14:53:26.209Z,6.63
2018-05-18T14:55:54.567Z,7.40
2018-05-18T14:58:23.030Z,10.40
2018-05-18T15:00:51.392Z,8.63
2018-05-18T15:03:20.597Z,4.90
2018-05-18T15:05:49.750Z,5.77
2018-05-18T15:08:18.188Z,6.53
2018-05-18T15:10:46.576Z,8.63
2018-05-18T15:13:14.973Z,8.33
2018-05-18T15:15:43.346Z,6.43
2018-05-18T15:18:11.707Z,5.60
2018-05-18T15:20:40.095Z,5.80
2018-05-18T15:23:08.431Z,7.10
2018-05-18T15:25:37.548Z,4.17
2018-05-18T15:28:05.908Z,4.90
2018-05-18T15:30:35.097Z,3.43
2018-05-18T15:33:04.273Z,7.73
2018-05-18T15:35:33.505Z,5.70
2018-05-18T15:38:01.871Z,7.30
2018-05-18T15:40:30.193Z,6.77
2018-05-18T15:42:58.484Z,5.13
2018-05-18T15:45:26.867Z,6.23
2018-05-18T15:47:55.164Z,5.63
2018-05-18T15:50:23.505Z,10.87
2018-05-18T15:52:51.797Z,4.67
2018-05-18T15:55:20.116Z,5.43
2018-05-18T15:57:48.480Z,5.00
2018-05-18T16:00:17.589Z,7.87
2018-05-18T16:02:45.876Z,6.33
2018-05-18T16:05:14.189Z,7.03
2018-05-18T16:07:42.497Z,5.40
2018-05-18T16:10:10.852Z,5.90
2018-05-18T16:12:39.141Z,3.90
2018-05-18T16:15:07.492Z,5.50
2018-05-18T16:17:35.820Z,6.27
2018-05-18T16:20:04.205Z,4.67
2018-05-18T16:22:32.505Z,6.33
2018-05-18T16:25:00.894Z,5.90
2018-05-18T16:27:29.248Z,6.40
2018-05-18T16:29:57.567Z,4.73
2018-05-18T16:32:25.880Z,4.27
2018-05-18T16:34:55.007Z,5.30
2018-05-18T16:37:23.291Z,3.73
2018-05-18T16:39:52.383Z,5.23
2018-05-18T16:42:21.445Z,3.23
2018-05-18T16:44:49.765Z,5.50
2018-05-18T16:47:18.906Z,3.80
2018-05-18T16:49:47.234Z,4.13
2018-05-18T16:52:16.320Z,4.73
2018-05-18T16:54:45.425Z,4.97
2018-05-18T16:57:13.772Z,4.60
2018-05-18T16:59:42.105Z,5.33
2018-05-18T17:02:10.480Z,3.30
2018-05-18T17:04:38.776Z,6.27
2018-05-18T17:07:07.094Z,6.13
2018-05-18T17:09:35.417Z,8.47
2018-05-18T17:12:03.736Z,5.33
2018-05-18T17:14:32.027Z,8.33
2018-05-18T17:17:00.393Z,7.40
2018-05-18T17:19:28.683Z,6.77
2018-05-18T17:21:57.015Z,3.90
2018-05-18T17:24:25.313Z,4.37
2018-05-18T17:26:53.629Z,6.07
2018-05-18T17:29:21.904Z,5.53
2018-05-18T17:31:50.228Z,5.47
2018-05-18T17:34:18.520Z,5.97
2018-05-18T17:36:46.837Z,5.60
2018-05-18T17:39:15.122Z,7.10
2018-05-18T17:41:43.441Z,6.90
2018-05-18T17:44:11.755Z,8.20
2018-05-18T17:46:40.084Z,6.83
2018-05-18T17:49:08.381Z,6.67
2018-05-18T17:51:36.688Z,5.83
2018-05-18T17:54:04.985Z,6.83
2018-05-18T17:56:33.293Z,6.80
2018-05-18T17:59:01.606Z,10.03
2018-05-18T18:01:29.946Z,7.53
2018-05-18T18:03:58.224Z,6.53
2018-05-18T18:06:26.556Z,11.53
2018-05-18T18:08:54.861Z,5.73
2018-05-18T18:11:23.940Z,5.53
2018-05-18T18:13:52.232Z,13.13
2018-05-18T18:16:21.300Z,8.17
2018-05-18T18:18:49.617Z,3.97
2018-05-18T18:21:17.932Z,6.67
2018-05-18T18:23:46.215Z,5.50
2018-05-18T18:26:14.585Z,7.27
2018-05-18T18:28:42.891Z,9.17
2018-05-18T18:31:11.266Z,10.23
2018-05-18T18:33:39.552Z,13.60
2018-05-18T18:36:07.950Z,10.40
2018-05-18T18:38:36.200Z,10.90
2018-05-18T18:41:04.528Z,13.87
2018-05-18T18:43:32.846Z,7.10
2018-05-18T18:46:01.193Z,7.43
2018-05-18T18:48:29.481Z,9.40
2018-05-18T18:50:57.840Z,7.33
2018-05-18T18:53:26.127Z,9.00
2018-05-18T18:55:54.447Z,9.03
2018-05-18T18:58:22.744Z,10.17
2018-05-18T19:00:51.841Z,9.37
2018-05-18T19:03:20.895Z,8.67
2018-05-18T19:05:49.199Z,9.97
2018-05-18T19:08:17.552Z,10.50
2018-05-18T19:10:45.879Z,13.50
2018-05-18T19:13:14.957Z,18.93
2018-05-18T19:15:44.028Z,14.47
2018-05-18T19:18:12.370Z,15.73
2018-05-18T19:20:40.668Z,12.57
2018-05-18T19:23:09.000Z,17.60
2018-05-18T19:25:38.104Z,13.40
2018-05-18T19:28:06.424Z,16.13
2018-05-18T19:30:34.793Z,13.40
2018-05-18T19:33:03.100Z,15.30
2018-05-18T19:35:31.484Z,22.43
2018-05-18T19:38:00.684Z,12.97
2018-05-18T19:40:29.060Z,14.00
2018-05-18T19:42:57.419Z,15.03
2018-05-18T19:45:25.759Z,13.73
2018-05-18T19:47:54.101Z,13.40
2018-05-18T19:50:22.395Z,12.63
2018-05-18T19:52:51.464Z,14.10
2018-05-18T19:55:19.755Z,14.50
2018-05-18T19:57:48.840Z,15.93
2018-05-18T20:00:17.135Z,13.27
2018-05-18T20:02:46.252Z,14.50
2018-05-18T20:05:14.563Z,12.00
2018-05-18T20:07:42.879Z,11.70
2018-05-18T20:10:11.198Z,18.03
2018-05-18T20:12:39.521Z,12.50
2018-05-18T20:15:07.825Z,9.10
2018-05-18T20:17:36.946Z,12.67
2018-05-18T20:20:05.269Z,12.70
2018-05-18T20:22:33.624Z,11.90
2018-05-18T20:25:01.967Z,12.40
2018-05-18T20:27:30.252Z,9.93
2018-05-18T20:29:58.538Z,12.67
2018-05-18T20:32:26.860Z,9.07
2018-05-18T20:34:55.156Z,9.00
2018-05-18T20:37:24.258Z,12.07
2018-05-18T20:39:52.565Z,14.77
2018-05-18T20:42:20.884Z,15.03
2018-05-18T20:44:49.184Z,16.73
2018-05-18T20:47:18.297Z,16.47
2018-05-18T20:49:46.591Z,13.53
2018-05-18T20:52:14.927Z,11.77
2018-05-18T20:54:43.210Z,11.20
2018-05-18T20:57:12.298Z,11.33
2018-05-18T20:59:40.590Z,11.67
2018-05-18T21:02:09.644Z,14.37
2018-05-18T21:04:37.975Z,11.03
2018-05-18T21:07:06.329Z,16.00
2018-05-18T21:09:34.693Z,11.87
2018-05-18T21:12:02.980Z,11.90
2018-05-18T21:14:31.338Z,13.60
2018-05-18T21:16:59.641Z,12.30
2018-05-18T21:19:27.962Z,13.10
2018-05-18T21:21:56.340Z,10.77
2018-05-18T21:24:24.658Z,13.37
2018-05-18T21:26:52.939Z,10.90
2018-05-18T21:29:21.280Z,12.63
2018-05-18T21:31:49.573Z,13.77
2018-05-18T21:34:17.895Z,13.23
2018-05-18T21:36:46.960Z,11.77
2018-05-18T21:39:15.325Z,11.67
2018-05-18T21:41:43.608Z,14.40
2018-05-18T21:44:11.942Z,12.47
2018-05-18T21:46:40.240Z,10.40
2018-05-18T21:49:08.560Z,11.10
2018-05-18T21:51:36.860Z,11.20
2018-05-18T21:54:05.201Z,14.10
2018-05-18T21:56:33.494Z,10.90
2018-05-18T21:59:01.803Z,10.43
2018-05-18T22:01:30.120Z,13.23
2018-05-18T22:03:58.447Z,7.50
2018-05-18T22:06:27.521Z,8.97
2018-05-18T22:08:56.660Z,9.13
2018-05-18T22:11:24.987Z,12.27
2018-05-18T22:13:53.354Z,12.77
2018-05-18T22:16:21.658Z,13.50
2018-05-18T22:18:49.967Z,10.73
2018-05-18T22:21:18.289Z,9.50
2018-05-18T22:23:46.604Z,11.47
2018-05-18T22:26:15.692Z,11.97
2018-05-18T22:28:44.003Z,9.73
2018-05-18T22:31:12.331Z,10.80
2018-05-18T22:33:40.661Z,10.53
2018-05-18T22:36:08.940Z,10.17
2018-05-18T22:38:37.266Z,13.47
2018-05-18T22:41:05.689Z,9.70
2018-05-18T22:43:34.000Z,13.57
2018-05-18T22:46:02.328Z,11.53
2018-05-18T22:48:31.400Z,10.47
2018-05-18T22:50:59.713Z,9.80
2018-05-18T22:53:28.003Z,13.63
2018-05-18T22:55:56.362Z,10.40
2018-05-18T22:58:24.653Z,12.47
2018-05-18T23:00:52.988Z,11.43
2018-05-18T23:03:21.268Z,16.83
2018-05-18T23:05:49.587Z,18.93
2018-05-18T23:08:17.907Z,11.37
2018-05-18T23:10:46.260Z,9.87
2018-05-18T23:13:14.551Z,9.97
2018-05-18T23:15:42.862Z,9.50
2018-05-18T23:18:11.176Z,11.17
2018-05-18T23:20:40.273Z,8.97
2018-05-18T23:23:08.636Z,11.63
2018-05-18T23:25:36.941Z,11.83
2018-05-18T23:28:05.200Z,12.73
2018-05-18T23:30:33.525Z,9.37
2018-05-18T23:33:01.835Z,13.60
2018-05-18T23:35:30.971Z,12.90
2018-05-18T23:37:59.269Z,12.90
2018-05-18T23:40:27.593Z,12.60
2018-05-18T23:42:55.908Z,13.90
2018-05-18T23:45:24.212Z,13.47
2018-05-18T23:47:52.524Z,12.37
2018-05-18T23:50:21.591Z,17.63
2018-05-18T23:52:49.884Z,11.37
2018-05-18T23:55:19.008Z,13.77
2018-05-18T23:57:47.300Z,10.53
